createdAt,value
2018-07-03T00:00:12.142Z,88.40
2018-07-03T00:02:39.454Z,88.30
2018-07-03T00:05:07.146Z,87.80
2018-07-03T00:07:34.853Z,88.30
2018-07-03T00:10:02.322Z,88.40
2018-07-03T00:12:29.794Z,88.90
2018-07-03T00:14:57.089Z,89.80
2018-07-03T00:17:24.475Z,90.20
2018-07-03T00:19:52.131Z,90.30
2018-07-03T00:22:20.634Z,90.30
2018-07-03T00:24:48.020Z,90.70
2018-07-03T00:27:16.161Z,90.00
2018-07-03T00:29:43.569Z,89.50
2018-07-03T00:32:11.087Z,89.70
2018-07-03T00:34:38.505Z,89.20
2018-07-03T00:37:05.942Z,89.50
2018-07-03T00:39:33.271Z,89.60
2018-07-03T00:42:00.757Z,90.10
2018-07-03T00:44:28.205Z,90.30
2018-07-03T00:46:55.668Z,89.90
2018-07-03T00:51:50.613Z,89.60
2018-07-03T00:54:17.911Z,89.20
2018-07-03T00:56:45.706Z,89.00
2018-07-03T00:59:13.138Z,89.10
2018-07-03T01:01:40.631Z,89.10
2018-07-03T01:04:07.966Z,88.90
2018-07-03T01:06:35.532Z,89.00
2018-07-03T01:09:04.679Z,89.00
2018-07-03T01:11:32.099Z,88.80
2018-07-03T01:13:59.537Z,88.60
2018-07-03T01:16:26.902Z,88.90
2018-07-03T01:18:54.310Z,88.90
2018-07-03T01:21:21.718Z,89.30
2018-07-03T01:23:49.062Z,90.10
2018-07-03T01:26:16.439Z,90.50
2018-07-03T01:28:43.834Z,90.30
2018-07-03T01:31:11.194Z,90.60
2018-07-03T01:33:38.598Z,90.50
2018-07-03T01:36:05.987Z,90.60
2018-07-03T01:38:33.474Z,90.80
2018-07-03T01:41:00.850Z,90.50
2018-07-03T01:43:28.246Z,90.90
2018-07-03T01:45:55.673Z,91.10
2018-07-03T01:48:23.134Z,90.90
2018-07-03T01:50:50.521Z,91.10
2018-07-03T01:53:17.958Z,91.20
2018-07-03T01:55:45.308Z,91.50
2018-07-03T01:58:12.694Z,91.60
2018-07-03T02:00:40.248Z,91.60
2018-07-03T02:03:07.602Z,91.50
2018-07-03T02:05:35.217Z,92.20
2018-07-03T02:08:02.642Z,92.50
2018-07-03T02:10:30.082Z,92.60
2018-07-03T02:12:57.516Z,92.80
2018-07-03T02:15:25.014Z,93.00
2018-07-03T02:17:52.398Z,93.10
2018-07-03T02:20:19.746Z,92.80
2018-07-03T02:22:47.128Z,92.70
2018-07-03T02:25:14.524Z,92.80
2018-07-03T02:27:41.990Z,92.80
2018-07-03T02:30:09.366Z,92.60
2018-07-03T02:32:36.762Z,92.90
2018-07-03T02:35:04.690Z,93.20
2018-07-03T02:37:32.098Z,93.20
2018-07-03T02:39:59.494Z,93.80
2018-07-03T02:42:26.892Z,93.40
2018-07-03T02:44:54.321Z,93.30
2018-07-03T02:47:21.666Z,93.60
2018-07-03T02:49:49.101Z,93.80
2018-07-03T02:52:16.513Z,93.70
2018-07-03T02:54:43.961Z,93.50
2018-07-03T02:57:11.434Z,94.60
2018-07-03T02:59:38.849Z,94.40
2018-07-03T03:02:06.257Z,94.80
2018-07-03T03:04:33.705Z,94.80
2018-07-03T03:07:01.183Z,94.90
2018-07-03T03:09:28.568Z,94.70
2018-07-03T03:11:56.002Z,95.10
2018-07-03T03:14:23.483Z,95.20
2018-07-03T03:16:50.824Z,95.30
2018-07-03T03:19:18.250Z,95.40
2018-07-03T03:21:45.612Z,95.10
2018-07-03T03:24:12.927Z,95.20
2018-07-03T03:26:40.267Z,95.30
2018-07-03T03:29:07.672Z,95.40
2018-07-03T03:31:35.086Z,96.10
2018-07-03T03:34:02.422Z,95.50
2018-07-03T03:36:29.867Z,95.70
2018-07-03T03:38:57.297Z,95.80
2018-07-03T03:41:24.781Z,95.90
2018-07-03T03:43:52.457Z,96.50
2018-07-03T03:46:19.853Z,96.20
2018-07-03T03:48:47.308Z,96.40
2018-07-03T03:51:14.657Z,96.40
2018-07-03T03:53:42.071Z,96.40
2018-07-03T03:56:09.496Z,96.40
2018-07-03T03:58:36.939Z,96.30
2018-07-03T04:01:04.369Z,96.30
2018-07-03T04:03:31.867Z,96.40
2018-07-03T04:06:00.060Z,97.00
2018-07-03T04:08:27.474Z,97.00
2018-07-03T04:10:54.836Z,97.10
2018-07-03T04:13:22.269Z,96.70
2018-07-03T04:15:49.641Z,96.50
2018-07-03T04:18:23.416Z,96.20
2018-07-03T04:20:50.935Z,96.40
2018-07-03T04:23:18.282Z,96.70
2018-07-03T04:25:55.810Z,96.20
2018-07-03T04:28:23.178Z,97.10
2018-07-03T04:30:50.701Z,97.10
2018-07-03T04:33:18.180Z,96.90
2018-07-03T04:35:48.203Z,96.60
2018-07-03T04:38:16.721Z,96.80
2018-07-03T04:40:45.257Z,96.80
2018-07-03T04:43:14.233Z,97.40
2018-07-03T04:45:42.912Z,97.40
2018-07-03T04:48:10.805Z,97.80
2018-07-03T04:50:39.218Z,98.00
2018-07-03T04:53:06.858Z,98.00
2018-07-03T04:55:34.328Z,98.10
2018-07-03T04:58:01.698Z,97.90
2018-07-03T05:00:29.514Z,98.20
2018-07-03T05:02:56.895Z,98.10
2018-07-03T05:05:24.482Z,98.30
2018-07-03T05:07:52.222Z,98.70
2018-07-03T05:10:19.714Z,98.60
2018-07-03T05:12:47.127Z,98.40
2018-07-03T05:15:14.734Z,97.90
2018-07-03T05:17:43.163Z,97.40
2018-07-03T05:20:10.660Z,97.50
2018-07-03T05:22:38.062Z,97.50
2018-07-03T05:25:05.565Z,97.40
2018-07-03T05:27:32.986Z,96.10
2018-07-03T05:30:00.478Z,95.30
2018-07-03T05:32:27.866Z,94.80
2018-07-03T05:34:55.280Z,95.90
2018-07-03T05:37:22.808Z,96.70
2018-07-03T05:39:50.195Z,95.90
2018-07-03T05:42:17.620Z,95.30
2018-07-03T05:44:45.008Z,95.30
2018-07-03T05:47:12.307Z,95.20
2018-07-03T05:49:39.656Z,95.60
2018-07-03T05:52:07.095Z,94.50
2018-07-03T05:54:34.634Z,94.70
2018-07-03T05:59:29.403Z,93.90
2018-07-03T06:01:56.901Z,95.50
2018-07-03T06:04:24.337Z,95.30
2018-07-03T06:06:51.885Z,92.10
2018-07-03T06:09:19.440Z,92.10
2018-07-03T06:11:46.739Z,91.60
2018-07-03T06:14:14.134Z,92.20
2018-07-03T06:16:41.523Z,91.30
2018-07-03T06:19:09.518Z,91.00
2018-07-03T06:21:36.947Z,92.00
2018-07-03T06:24:04.649Z,91.20
2018-07-03T06:26:32.174Z,90.90
2018-07-03T06:28:59.785Z,91.30
2018-07-03T06:31:27.188Z,90.50
2018-07-03T06:33:54.492Z,90.80
2018-07-03T06:36:22.158Z,91.60
2018-07-03T06:38:49.580Z,91.10
2018-07-03T06:41:17.042Z,91.10
2018-07-03T06:43:44.470Z,90.40
2018-07-03T06:46:11.941Z,91.00
2018-07-03T06:48:39.257Z,91.00
2018-07-03T06:51:06.674Z,91.60
2018-07-03T06:53:34.189Z,91.10
2018-07-03T06:56:01.473Z,90.30
2018-07-03T06:58:28.918Z,90.10
2018-07-03T07:00:56.279Z,88.70
2018-07-03T07:03:23.713Z,90.60
2018-07-03T07:05:51.177Z,90.40
2018-07-03T07:08:18.662Z,90.30
2018-07-03T07:10:46.017Z,89.60
2018-07-03T07:13:13.421Z,89.50
2018-07-03T07:15:40.972Z,90.10
2018-07-03T07:18:08.432Z,87.70
2018-07-03T07:20:35.895Z,86.80
2018-07-03T07:23:03.686Z,88.30
2018-07-03T07:25:31.113Z,87.80
2018-07-03T07:27:59.473Z,88.70
2018-07-03T07:30:26.869Z,86.50
2018-07-03T07:32:54.337Z,85.30
2018-07-03T07:35:21.743Z,87.50
2018-07-03T07:37:49.127Z,86.80
2018-07-03T07:40:16.546Z,83.90
2018-07-03T07:42:43.966Z,85.30
2018-07-03T07:45:11.363Z,84.80
2018-07-03T07:47:38.733Z,84.60
2018-07-03T07:50:06.286Z,82.80
2018-07-03T07:52:33.702Z,81.80
2018-07-03T07:55:01.378Z,83.10
2018-07-03T07:57:28.811Z,81.80
2018-07-03T07:59:56.301Z,82.30
2018-07-03T08:02:23.692Z,82.80
2018-07-03T08:04:51.115Z,83.50
2018-07-03T08:07:18.411Z,84.20
2018-07-03T08:09:45.899Z,83.60
2018-07-03T08:12:13.880Z,84.50
2018-07-03T08:14:41.250Z,83.80
2018-07-03T08:17:08.679Z,80.90
2018-07-03T08:19:36.239Z,83.00
2018-07-03T08:22:03.712Z,81.60
2018-07-03T08:24:31.180Z,81.30
2018-07-03T08:26:58.613Z,82.10
2018-07-03T08:29:26.054Z,79.80
2018-07-03T08:31:53.500Z,80.00
2018-07-03T08:34:20.941Z,80.70
2018-07-03T08:36:48.386Z,80.30
2018-07-03T08:39:15.765Z,79.00
2018-07-03T08:41:43.135Z,79.80
2018-07-03T08:44:10.561Z,80.50
2018-07-03T08:46:37.994Z,78.20
2018-07-03T08:49:06.537Z,77.70
2018-07-03T08:51:33.990Z,75.90
2018-07-03T08:54:01.342Z,77.20
2018-07-03T08:56:28.783Z,80.50
2018-07-03T08:58:56.267Z,76.50
2018-07-03T09:01:23.778Z,77.60
2018-07-03T09:03:51.246Z,78.80
2018-07-03T09:06:18.670Z,77.10
2018-07-03T09:08:46.139Z,74.90
2018-07-03T09:11:13.418Z,77.90
2018-07-03T09:13:40.942Z,76.90
2018-07-03T09:16:08.335Z,78.40
2018-07-03T09:18:35.827Z,76.90
2018-07-03T09:21:03.216Z,77.50
2018-07-03T09:23:30.677Z,77.80
2018-07-03T09:25:57.966Z,76.60
2018-07-03T09:28:25.368Z,76.50
2018-07-03T09:33:20.098Z,74.80
2018-07-03T09:35:47.445Z,74.00
2018-07-03T09:38:14.937Z,72.50
2018-07-03T09:40:42.434Z,74.00
2018-07-03T09:43:09.838Z,75.70
2018-07-03T09:45:37.310Z,73.40
2018-07-03T09:48:04.855Z,71.70
2018-07-03T09:50:32.245Z,71.50
2018-07-03T09:52:59.653Z,74.10
2018-07-03T09:55:27.105Z,75.30
2018-07-03T09:57:54.529Z,73.20
2018-07-03T10:00:27.650Z,74.30
2018-07-03T10:02:55.819Z,75.90
2018-07-03T10:05:23.319Z,73.90
2018-07-03T10:07:50.605Z,75.80
2018-07-03T10:10:17.959Z,73.90
2018-07-03T10:12:45.339Z,74.80
2018-07-03T10:15:12.749Z,73.40
2018-07-03T10:17:40.129Z,72.10
2018-07-03T10:20:07.641Z,71.20
2018-07-03T10:22:35.081Z,66.30
2018-07-03T10:25:02.524Z,70.50
2018-07-03T10:27:29.875Z,70.80
2018-07-03T10:29:57.202Z,67.30
2018-07-03T10:32:24.641Z,70.50
2018-07-03T10:34:51.981Z,73.00
2018-07-03T10:37:19.337Z,72.20
2018-07-03T10:39:46.783Z,70.30
2018-07-03T10:42:14.209Z,71.50
2018-07-03T10:44:41.561Z,70.80
2018-07-03T10:47:08.988Z,69.60
2018-07-03T10:49:36.439Z,72.70
2018-07-03T10:52:03.826Z,68.10
2018-07-03T10:56:58.665Z,71.10
2018-07-03T10:59:26.019Z,63.70
2018-07-03T11:01:53.441Z,63.70
2018-07-03T11:04:20.883Z,65.90
2018-07-03T11:06:48.220Z,64.00
2018-07-03T11:09:15.607Z,63.00
2018-07-03T11:14:10.464Z,64.80
2018-07-03T11:16:37.899Z,67.50
2018-07-03T11:19:05.296Z,66.50
2018-07-03T11:21:32.760Z,63.60
2018-07-03T11:24:00.749Z,63.50
2018-07-03T11:26:28.225Z,64.90
2018-07-03T11:31:23.144Z,63.00
2018-07-03T11:33:51.099Z,60.10
2018-07-03T11:36:18.562Z,65.60
2018-07-03T11:38:46.005Z,65.10
2018-07-03T11:41:13.414Z,61.10
2018-07-03T11:43:40.813Z,63.00
2018-07-03T11:46:10.708Z,65.60
2018-07-03T11:48:38.148Z,64.40
2018-07-03T11:51:05.587Z,68.70
2018-07-03T11:53:33.130Z,63.20
2018-07-03T11:56:00.614Z,66.40
2018-07-03T11:58:28.164Z,65.60
2018-07-03T12:00:55.573Z,64.50
2018-07-03T12:03:22.955Z,68.70
2018-07-03T12:05:50.365Z,67.50
2018-07-03T12:08:17.846Z,61.20
2018-07-03T12:10:45.149Z,66.00
2018-07-03T12:13:12.618Z,65.10
2018-07-03T12:15:40.681Z,61.40
2018-07-03T12:19:17.470Z,66.80
2018-07-03T12:21:44.933Z,65.40
2018-07-03T12:24:12.730Z,67.40
2018-07-03T12:26:40.098Z,67.60
2018-07-03T12:31:34.902Z,65.30
2018-07-03T12:34:02.310Z,62.80
2018-07-03T12:36:29.682Z,65.50
2018-07-03T12:38:57.197Z,67.90
2018-07-03T12:43:52.510Z,64.30
2018-07-03T12:46:20.006Z,65.40
2018-07-03T12:48:47.459Z,65.00
2018-07-03T12:51:14.901Z,61.00
2018-07-03T12:53:42.336Z,59.90
2018-07-03T12:56:09.776Z,65.00
2018-07-03T12:58:37.289Z,62.40
2018-07-03T13:01:04.759Z,63.20
2018-07-03T13:03:32.266Z,59.80
2018-07-03T13:05:59.762Z,63.40
2018-07-03T13:08:27.190Z,60.70
2018-07-03T13:13:21.961Z,61.40
2018-07-03T13:15:49.423Z,62.00
2018-07-03T13:18:21.927Z,63.10
2018-07-03T13:20:50.804Z,56.40
2018-07-03T13:23:18.620Z,61.20
2018-07-03T13:25:45.954Z,61.20
2018-07-03T13:30:40.691Z,60.60
2018-07-03T13:33:08.162Z,57.70
2018-07-03T13:35:36.277Z,58.50
2018-07-03T13:38:04.490Z,59.30
2018-07-03T13:40:33.633Z,59.70
2018-07-03T13:43:01.180Z,57.30
2018-07-03T13:45:28.684Z,55.80
2018-07-03T13:47:56.205Z,56.00
2018-07-03T13:50:25.843Z,58.90
2018-07-03T13:52:53.527Z,54.80
2018-07-03T13:55:20.948Z,55.50
2018-07-03T13:57:48.339Z,60.00
2018-07-03T14:00:16.627Z,56.60
2018-07-03T14:02:44.063Z,55.30
2018-07-03T14:05:11.456Z,59.50
2018-07-03T14:07:38.859Z,57.80
2018-07-03T14:10:06.324Z,58.70
2018-07-03T14:15:01.253Z,56.90
2018-07-03T14:17:28.627Z,57.40
2018-07-03T14:19:55.964Z,58.70
2018-07-03T14:22:23.357Z,57.00
2018-07-03T14:24:50.692Z,56.70
2018-07-03T14:27:18.051Z,58.20
2018-07-03T14:29:45.478Z,57.20
2018-07-03T14:34:40.388Z,56.30
2018-07-03T14:37:07.856Z,57.10
2018-07-03T14:39:35.317Z,58.70
2018-07-03T14:42:02.757Z,58.10
2018-07-03T14:44:30.122Z,57.30
2018-07-03T14:46:57.634Z,60.00
2018-07-03T14:49:25.126Z,55.70
2018-07-03T14:51:52.468Z,54.00
2018-07-03T14:54:19.878Z,58.80
2018-07-03T14:56:47.251Z,54.40
2018-07-03T14:59:14.667Z,55.60
2018-07-03T15:01:42.163Z,56.70
2018-07-03T15:04:09.542Z,58.70
2018-07-03T15:06:36.902Z,56.60
2018-07-03T15:11:33.466Z,58.40
2018-07-03T15:16:28.217Z,55.40
2018-07-03T15:19:01.502Z,59.60
2018-07-03T15:21:28.866Z,56.20
2018-07-03T15:23:56.297Z,56.60
2018-07-03T15:26:23.870Z,56.50
2018-07-03T15:28:51.322Z,55.20
2018-07-03T15:31:18.763Z,58.20
2018-07-03T15:33:46.232Z,56.40
2018-07-03T15:36:13.724Z,58.90
2018-07-03T15:38:41.225Z,59.00
2018-07-03T15:41:08.752Z,56.10
2018-07-03T15:43:36.304Z,58.00
2018-07-03T15:46:04.472Z,58.70
2018-07-03T15:48:31.878Z,58.10
2018-07-03T15:50:59.387Z,57.80
2018-07-03T15:53:26.877Z,58.80
2018-07-03T15:55:54.292Z,56.10
2018-07-03T15:58:21.659Z,58.80
2018-07-03T16:00:49.162Z,57.20
2018-07-03T16:05:33.293Z,57.70
2018-07-03T16:08:12.295Z,57.50
2018-07-03T16:10:39.814Z,62.20
2018-07-03T16:13:07.312Z,59.70
2018-07-03T16:15:34.851Z,61.70
2018-07-03T16:18:02.258Z,65.40
2018-07-03T16:20:35.347Z,59.00
2018-07-03T16:23:02.844Z,61.80
2018-07-03T16:25:30.356Z,61.00
2018-07-03T16:27:57.728Z,60.20
2018-07-03T16:30:25.099Z,59.40
2018-07-03T16:32:52.507Z,58.80
2018-07-03T16:35:20.234Z,58.20
2018-07-03T16:37:47.696Z,59.90
2018-07-03T16:40:15.172Z,59.60
2018-07-03T16:42:42.657Z,63.10
2018-07-03T16:45:10.057Z,59.50
2018-07-03T16:47:37.478Z,65.40
2018-07-03T16:50:05.664Z,58.90
2018-07-03T16:52:33.040Z,56.30
2018-07-03T16:55:00.499Z,59.20
2018-07-03T16:57:27.962Z,57.10
2018-07-03T16:59:55.343Z,58.10
2018-07-03T17:02:22.722Z,56.00
2018-07-03T17:04:50.078Z,58.00
2018-07-03T17:07:17.432Z,58.80
2018-07-03T17:09:44.875Z,59.10
2018-07-03T17:12:12.351Z,58.20
2018-07-03T17:14:39.857Z,63.50
2018-07-03T17:17:07.254Z,60.90
2018-07-03T17:19:37.289Z,59.50
2018-07-03T17:22:05.354Z,58.20
2018-07-03T17:24:33.261Z,58.70
2018-07-03T17:27:00.791Z,60.20
2018-07-03T17:29:28.217Z,59.00
2018-07-03T17:31:55.618Z,58.50
2018-07-03T17:34:23.001Z,58.20
2018-07-03T17:41:57.838Z,60.10
2018-07-03T17:44:48.123Z,61.00
2018-07-03T17:47:16.290Z,59.20
2018-07-03T17:49:43.828Z,60.30
2018-07-03T17:52:11.355Z,59.70
2018-07-03T17:54:38.870Z,60.70
2018-07-03T17:57:06.339Z,61.70
2018-07-03T17:59:33.876Z,63.60
2018-07-03T18:02:01.315Z,62.20
2018-07-03T18:04:28.744Z,65.60
2018-07-03T18:06:56.320Z,70.50
2018-07-03T18:09:23.767Z,65.50
2018-07-03T18:11:51.212Z,64.50
2018-07-03T18:14:18.907Z,66.00
2018-07-03T18:16:46.417Z,71.00
2018-07-03T18:19:19.662Z,70.00
2018-07-03T18:21:47.236Z,74.90
2018-07-03T18:24:14.681Z,76.10
2018-07-03T18:26:42.100Z,75.00
2018-07-03T18:29:09.491Z,75.10
2018-07-03T18:31:36.930Z,81.10
2018-07-03T18:34:04.850Z,82.00
2018-07-03T18:36:32.275Z,79.20
2018-07-03T18:38:59.702Z,78.80
2018-07-03T18:41:27.171Z,80.30
2018-07-03T18:43:54.697Z,81.30
2018-07-03T18:46:22.094Z,80.70
2018-07-03T18:48:49.553Z,84.20
2018-07-03T18:51:17.124Z,83.70
2018-07-03T18:53:44.577Z,80.90
2018-07-03T18:56:12.114Z,85.20
2018-07-03T18:58:39.661Z,85.90
2018-07-03T19:01:07.231Z,85.30
2018-07-03T19:03:34.704Z,84.40
2018-07-03T19:06:02.314Z,84.60
2018-07-03T19:08:30.276Z,83.10
2018-07-03T19:10:57.925Z,86.40
2018-07-03T19:13:25.551Z,84.00
2018-07-03T19:15:53.072Z,84.30
2018-07-03T19:18:20.475Z,77.70
2018-07-03T19:20:47.949Z,80.30
2018-07-03T19:23:15.455Z,85.30
2018-07-03T19:25:43.041Z,83.10
2018-07-03T19:28:10.958Z,83.90
2018-07-03T19:30:38.799Z,84.60
2018-07-03T19:33:06.687Z,85.00
2018-07-03T19:35:34.150Z,85.30
2018-07-03T19:38:01.732Z,84.40
2018-07-03T19:40:29.251Z,88.00
2018-07-03T19:43:28.790Z,84.60
2018-07-03T19:45:57.020Z,85.90
2018-07-03T19:48:24.699Z,84.30
2018-07-03T19:50:52.857Z,84.70
2018-07-03T19:53:21.041Z,82.10
2018-07-03T19:55:49.810Z,81.90
2018-07-03T19:58:17.893Z,83.80
2018-07-03T20:00:45.668Z,86.50
2018-07-03T20:03:13.251Z,85.20
2018-07-03T20:05:40.725Z,86.50
2018-07-03T20:08:08.703Z,86.70
2018-07-03T20:10:36.988Z,86.50
2018-07-03T20:13:05.146Z,84.00
2018-07-03T20:15:34.077Z,85.90
2018-07-03T20:18:01.533Z,88.50
2018-07-03T20:20:29.056Z,85.40
2018-07-03T20:22:56.522Z,85.60
2018-07-03T20:25:24.535Z,87.20
2018-07-03T20:27:52.033Z,89.10
2018-07-03T20:30:19.871Z,87.30
2018-07-03T20:32:47.703Z,87.20
2018-07-03T20:35:15.143Z,86.80
2018-07-03T20:37:55.643Z,86.20
2018-07-03T20:40:23.623Z,86.80
2018-07-03T20:42:53.225Z,89.40
2018-07-03T20:45:20.858Z,88.90
2018-07-03T20:47:48.419Z,88.50
2018-07-03T20:50:16.809Z,88.00
2018-07-03T20:52:44.739Z,90.10
2018-07-03T20:55:12.453Z,87.60
2018-07-03T20:57:39.989Z,89.30
2018-07-03T21:00:07.570Z,90.90
2018-07-03T21:02:35.566Z,90.60
2018-07-03T21:07:30.704Z,90.90
2018-07-03T21:09:58.378Z,91.10
2018-07-03T21:12:26.449Z,90.60
2018-07-03T21:14:53.842Z,90.30
2018-07-03T21:17:21.386Z,90.30
2018-07-03T21:19:48.864Z,90.70
2018-07-03T21:22:16.294Z,91.80
2018-07-03T21:24:43.852Z,92.40
2018-07-03T21:27:11.238Z,91.60
2018-07-03T21:29:38.976Z,92.00
2018-07-03T21:32:06.555Z,92.10
2018-07-03T21:34:33.934Z,93.10
2018-07-03T21:37:01.401Z,93.00
2018-07-03T21:39:29.803Z,92.40
2018-07-03T21:41:57.927Z,91.50
2018-07-03T21:44:25.454Z,91.20
2018-07-03T21:46:53.298Z,92.20
2018-07-03T21:49:20.628Z,92.40
2018-07-03T21:51:48.043Z,92.20
2018-07-03T21:54:16.325Z,92.50
2018-07-03T21:56:43.922Z,92.40
2018-07-03T21:59:11.843Z,92.10
2018-07-03T22:01:39.302Z,91.80
2018-07-03T22:04:06.757Z,91.40
2018-07-03T22:06:34.162Z,91.30
2018-07-03T22:09:01.640Z,91.50
2018-07-03T22:11:29.051Z,92.00
2018-07-03T22:13:56.518Z,92.30
2018-07-03T22:16:23.981Z,92.30
2018-07-03T22:18:51.279Z,92.70
2018-07-03T22:21:19.218Z,92.50
2018-07-03T22:23:46.543Z,92.40
2018-07-03T22:26:14.451Z,91.40
2018-07-03T22:28:41.827Z,92.00
2018-07-03T22:31:09.552Z,92.80
2018-07-03T22:33:37.048Z,93.70
2018-07-03T22:36:04.679Z,94.10
2018-07-03T22:38:32.067Z,92.90
2018-07-03T22:40:59.683Z,94.00
2018-07-03T22:43:27.130Z,94.00
2018-07-03T22:45:54.455Z,93.70
2018-07-03T22:48:21.879Z,93.90
2018-07-03T22:50:49.380Z,94.00
2018-07-03T22:53:16.863Z,93.70
2018-07-03T22:55:44.259Z,93.40
2018-07-03T22:58:11.650Z,92.80
2018-07-03T23:00:38.963Z,93.50
2018-07-03T23:03:06.363Z,93.50
2018-07-03T23:05:33.706Z,93.70
2018-07-03T23:08:01.254Z,93.50
2018-07-03T23:10:28.663Z,92.90
2018-07-03T23:12:56.049Z,92.70
2018-07-03T23:15:23.556Z,93.50
2018-07-03T23:17:50.983Z,93.70
2018-07-03T23:20:18.355Z,93.90
2018-07-03T23:22:45.830Z,94.20
2018-07-03T23:25:13.272Z,94.40
2018-07-03T23:27:40.802Z,93.80
2018-07-03T23:30:08.090Z,93.90
2018-07-03T23:32:35.531Z,94.60
2018-07-03T23:35:03.026Z,94.50
2018-07-03T23:37:30.410Z,94.40
2018-07-03T23:39:57.762Z,94.70
2018-07-03T23:42:25.142Z,94.90
2018-07-03T23:44:52.698Z,95.20
2018-07-03T23:47:31.534Z,94.70
2018-07-03T23:50:10.534Z,95.10
2018-07-03T23:52:49.356Z,95.00
2018-07-03T23:55:28.046Z,95.70
2018-07-03T23:58:06.994Z,95.10
